Burns City, Indiana
Current Conditions -  °F | °C
As of 8:15 AM on Thursday 27 Nov 2014 (Local Time) from KDCY Reporting Station
Clear Clear  
Wind Chill: 18°   Ceiling: Unl
Heat Index: 28°   Visibility: 10mi
Dew Point: 24°   Wind: 12mph
Humidity: 86%   Direction: 290°WNW
Pressure: 30.37"   Gusts: NA
Location:  38.6074°N, 86.9234°W
Report Text: KDCY 271415Z AUTO 29010KT 10SM CLR M02/M04 A3037 RMK AO2 T10241044
Loading
Personal Weather Stations






























Interactive Weather Map New forecast layout! Learn more

10-Day Weather Forecast

Advertisements
Track Severe Weather on mobile